Time;durP1;ratioP1;P1;durP2;ratioP2;P2;SDS_P1;SDS_P2;PMS_P1;PMS_P2;Temp;Humidity;BMP_temperature;BMP_pressure;BME280_temperature;BME280_humidity;BME280_pressure;Samples;Min_cycle;Max_cycle;Signal;HPM_P1;HPM_P2
2023/10/25 00:00:16;;;;;;;;;;;10.60;99.90;;;;;;5075615;28;19920;-73
2023/10/25 00:02:42;;;;;;;;;;;10.60;99.90;;;;;;5072407;28;19988;-73
2023/10/25 00:05:09;;;;;;;;;;;10.60;99.90;;;;;;5087177;28;19920;-73
2023/10/25 00:07:36;;;;;;;;;;;10.60;99.90;;;;;;5072727;28;20162;-73
2023/10/25 00:10:04;;;;;;;;;;;10.60;99.90;;;;;;5074426;28;19988;-72
2023/10/25 00:12:31;;;;;;;;;;;10.60;99.90;;;;;;5073485;28;19920;-72
2023/10/25 00:14:57;;;;;;;;;;;10.60;99.90;;;;;;5072950;28;19921;-73
2023/10/25 00:17:24;;;;;;;;;;;10.60;99.90;;;;;;5073504;28;19988;-72
2023/10/25 00:19:52;;;;;;;;;;;10.60;99.90;;;;;;5072767;28;19955;-73
2023/10/25 00:22:18;;;;;;;;;;;10.60;99.90;;;;;;5085829;28;19925;-73
2023/10/25 00:24:45;;;;;;;;;;;10.50;99.90;;;;;;5085252;28;19987;-72
2023/10/25 00:27:13;;;;;;;;;;;10.50;99.90;;;;;;5085340;28;19920;-72
2023/10/25 00:29:40;;;;;;;;;;;10.50;99.90;;;;;;5085798;28;19963;-73
2023/10/25 00:32:06;;;;;;;;;;;10.50;99.90;;;;;;5085427;28;19921;-73
2023/10/25 00:34:33;;;;;;;;;;;10.50;99.90;;;;;;5085457;28;19987;-72
2023/10/25 00:37:00;;;;;;;;;;;10.40;99.90;;;;;;5085150;28;20010;-72
2023/10/25 00:39:28;;;;;;;;;;;10.40;99.90;;;;;;5085488;28;19920;-72
2023/10/25 00:41:55;;;;;;;;;;;10.40;99.90;;;;;;5085037;28;19929;-73
2023/10/25 00:44:22;;;;;;;;;;;10.40;99.90;;;;;;5085191;28;19971;-73
2023/10/25 00:46:49;;;;;;;;;;;10.40;99.90;;;;;;5084750;28;19958;-72
2023/10/25 00:49:17;;;;;;;;;;;10.40;99.90;;;;;;5084991;28;19992;-72
2023/10/25 00:51:43;;;;;;;;;;;10.40;99.90;;;;;;5084989;28;19987;-72
2023/10/25 00:54:10;;;;;;;;;;;10.40;99.90;;;;;;5085132;28;19955;-72
2023/10/25 00:56:38;;;;;;;;;;;10.30;99.90;;;;;;5087641;28;19924;-72
2023/10/25 00:59:04;;;;;;;;;;;10.30;99.90;;;;;;5088377;28;20211;-72
2023/10/25 01:01:33;;;;;;;;;;;10.30;99.90;;;;;;5084988;28;19958;-72
2023/10/25 01:03:59;;;;;;;;;;;10.30;99.90;;;;;;5084657;28;19952;-73
2023/10/25 01:06:26;;;;;;;;;;;10.30;99.90;;;;;;5083078;28;19920;-72
2023/10/25 01:08:53;;;;;;;;;;;10.30;99.90;;;;;;5084522;28;19927;-72
2023/10/25 01:11:20;;;;;;;;;;;10.20;99.90;;;;;;5084997;28;19991;-72
2023/10/25 01:13:46;;;;;;;;;;;10.20;99.90;;;;;;5084799;28;20122;-72
2023/10/25 01:16:13;;;;;;;;;;;10.20;99.90;;;;;;5084155;28;19971;-73
2023/10/25 01:18:41;;;;;;;;;;;10.20;99.90;;;;;;5084189;28;20226;-72
2023/10/25 01:21:08;;;;;;;;;;;10.20;99.90;;;;;;5084585;28;19987;-72
2023/10/25 01:23:36;;;;;;;;;;;10.20;99.90;;;;;;5084539;28;20022;-73
2023/10/25 01:26:02;;;;;;;;;;;10.20;99.90;;;;;;5082676;28;20181;-73
2023/10/25 01:28:29;;;;;;;;;;;10.20;99.90;;;;;;5084375;28;19921;-73
2023/10/25 01:30:55;;;;;;;;;;;10.20;99.90;;;;;;5084235;28;20168;-73
2023/10/25 01:33:22;;;;;;;;;;;10.20;99.90;;;;;;5084266;28;19927;-72
2023/10/25 01:35:49;;;;;;;;;;;10.20;99.90;;;;;;5083681;28;19947;-73
2023/10/25 01:38:15;;;;;;;;;;;10.20;99.90;;;;;;5084333;28;19924;-73
2023/10/25 01:40:43;;;;;;;;;;;10.20;99.90;;;;;;5084238;28;20173;-72
2023/10/25 01:43:10;;;;;;;;;;;10.20;99.90;;;;;;5083817;28;20249;-73
2023/10/25 01:45:37;;;;;;;;;;;10.20;99.90;;;;;;5083714;28;19983;-72
2023/10/25 01:48:03;;;;;;;;;;;10.20;99.90;;;;;;5084087;28;20120;-73
2023/10/25 01:50:30;;;;;;;;;;;10.20;99.90;;;;;;5084199;28;19992;-72
2023/10/25 01:52:57;;;;;;;;;;;10.20;99.90;;;;;;5084096;28;19983;-72
2023/10/25 01:55:23;;;;;;;;;;;10.20;99.90;;;;;;5083526;28;19959;-72
2023/10/25 01:57:51;;;;;;;;;;;10.20;99.90;;;;;;5082251;28;20338;-72
2023/10/25 02:00:18;;;;;;;;;;;10.20;99.90;;;;;;5081301;28;19988;-73
2023/10/25 02:02:45;;;;;;;;;;;10.20;99.90;;;;;;5084201;28;19952;-72
2023/10/25 02:05:11;;;;;;;;;;;10.30;99.90;;;;;;5083187;28;19995;-73
2023/10/25 02:07:39;;;;;;;;;;;10.30;99.90;;;;;;5083625;28;19987;-72
2023/10/25 02:10:06;;;;;;;;;;;10.30;99.90;;;;;;5083634;28;19929;-72
2023/10/25 02:12:32;;;;;;;;;;;10.20;99.90;;;;;;5082625;28;20118;-72
2023/10/25 02:15:00;;;;;;;;;;;10.30;99.90;;;;;;5083557;28;19920;-72
2023/10/25 02:17:27;;;;;;;;;;;10.20;99.90;;;;;;5083394;28;19971;-72
2023/10/25 02:19:54;;;;;;;;;;;10.20;99.90;;;;;;5083723;28;19920;-72
2023/10/25 02:22:20;;;;;;;;;;;10.20;99.90;;;;;;5080533;28;19987;-73
2023/10/25 02:24:47;;;;;;;;;;;10.20;99.90;;;;;;5083443;28;20113;-73
2023/10/25 02:27:13;;;;;;;;;;;10.20;99.90;;;;;;5083132;28;19987;-72
2023/10/25 02:29:40;;;;;;;;;;;10.20;99.90;;;;;;5082821;28;19920;-72
2023/10/25 02:32:10;;;;;;;;;;;10.20;99.90;;;;;;5083410;28;19952;-72
2023/10/25 02:34:37;;;;;;;;;;;10.20;99.90;;;;;;5083060;28;19927;-73
2023/10/25 02:37:04;;;;;;;;;;;10.20;99.90;;;;;;5082393;28;20010;-72
2023/10/25 02:39:30;;;;;;;;;;;10.20;99.90;;;;;;5083162;28;20202;-72
2023/10/25 02:41:57;;;;;;;;;;;10.20;99.90;;;;;;5083498;28;19927;-72
2023/10/25 02:44:23;;;;;;;;;;;10.20;99.90;;;;;;5082927;28;19920;-72
2023/10/25 02:46:50;;;;;;;;;;;10.20;99.90;;;;;;5082890;28;19955;-72
2023/10/25 02:49:18;;;;;;;;;;;10.20;99.90;;;;;;5083014;28;19920;-73
2023/10/25 02:51:45;;;;;;;;;;;10.20;99.90;;;;;;5083480;28;19968;-72
2023/10/25 02:54:11;;;;;;;;;;;10.20;99.90;;;;;;5082104;28;19928;-73
2023/10/25 02:56:38;;;;;;;;;;;10.20;99.90;;;;;;5081842;28;19920;-73
2023/10/25 02:59:04;;;;;;;;;;;10.20;99.90;;;;;;5083538;28;19927;-72
2023/10/25 03:01:31;;;;;;;;;;;10.20;99.90;;;;;;5083247;28;19955;-72
2023/10/25 03:03:58;;;;;;;;;;;10.20;99.90;;;;;;5082915;28;19952;-72
2023/10/25 03:06:26;;;;;;;;;;;10.20;99.90;;;;;;5082718;28;20117;-72
2023/10/25 03:08:53;;;;;;;;;;;10.20;99.90;;;;;;5082584;28;20290;-73
2023/10/25 03:11:19;;;;;;;;;;;10.20;99.90;;;;;;5083060;28;19920;-72
2023/10/25 03:13:46;;;;;;;;;;;10.20;99.90;;;;;;5083098;28;19921;-72
2023/10/25 03:16:13;;;;;;;;;;;10.20;99.90;;;;;;5082447;28;19927;-72
2023/10/25 03:18:40;;;;;;;;;;;10.10;99.90;;;;;;5078144;28;19928;-73
2023/10/25 03:21:06;;;;;;;;;;;10.10;99.90;;;;;;5083051;28;20023;-72
2023/10/25 03:23:34;;;;;;;;;;;10.00;99.90;;;;;;5083054;28;19920;-72
2023/10/25 03:26:05;;;;;;;;;;;10.00;99.90;;;;;;5082060;28;19979;-72
2023/10/25 03:28:31;;;;;;;;;;;10.00;99.90;;;;;;5081813;28;19958;-73
2023/10/25 03:30:58;;;;;;;;;;;9.90;99.90;;;;;;5082939;28;19942;-72
2023/10/25 03:33:25;;;;;;;;;;;9.90;99.90;;;;;;5082847;28;19952;-72
2023/10/25 03:35:52;;;;;;;;;;;9.90;99.90;;;;;;5082249;28;19983;-73
2023/10/25 03:38:19;;;;;;;;;;;9.80;99.90;;;;;;5082554;28;20262;-73
2023/10/25 03:40:47;;;;;;;;;;;9.80;99.90;;;;;;5083006;28;19988;-72
2023/10/25 03:43:15;;;;;;;;;;;9.70;99.90;;;;;;5082654;28;19988;-73
2023/10/25 03:45:42;;;;;;;;;;;9.70;99.90;;;;;;5082265;28;19952;-72
2023/10/25 03:48:08;;;;;;;;;;;9.70;99.90;;;;;;5083096;28;19987;-70
2023/10/25 03:50:36;;;;;;;;;;;9.60;99.90;;;;;;5086403;28;20162;-72
2023/10/25 03:53:03;;;;;;;;;;;9.60;99.90;;;;;;5086399;28;20110;-72
2023/10/25 03:55:29;;;;;;;;;;;9.60;99.90;;;;;;5085294;28;19920;-72
2023/10/25 03:57:56;;;;;;;;;;;9.60;99.90;;;;;;5086153;28;20225;-72
2023/10/25 04:00:24;;;;;;;;;;;9.60;99.90;;;;;;5086164;28;19956;-73
2023/10/25 04:02:51;;;;;;;;;;;9.60;99.90;;;;;;5086000;28;19921;-72
2023/10/25 04:05:17;;;;;;;;;;;9.60;99.90;;;;;;5082189;28;20167;-72
2023/10/25 04:07:44;;;;;;;;;;;9.50;99.90;;;;;;5084569;28;19920;-72
2023/10/25 04:10:10;;;;;;;;;;;9.40;99.90;;;;;;5085560;28;20163;-72
2023/10/25 04:12:37;;;;;;;;;;;9.40;99.90;;;;;;5086042;28;19988;-72
2023/10/25 04:15:04;;;;;;;;;;;9.40;99.90;;;;;;5085787;28;20114;-72
2023/10/25 04:17:32;;;;;;;;;;;9.40;99.90;;;;;;5085982;28;19951;-72
2023/10/25 04:19:59;;;;;;;;;;;9.40;99.90;;;;;;5086151;28;19924;-72
2023/10/25 04:22:25;;;;;;;;;;;9.40;99.90;;;;;;5085996;28;19952;-72
2023/10/25 04:24:52;;;;;;;;;;;9.40;99.90;;;;;;5085038;28;20154;-72
2023/10/25 04:27:18;;;;;;;;;;;9.40;99.90;;;;;;5084030;28;19987;-72
2023/10/25 04:29:45;;;;;;;;;;;9.40;99.90;;;;;;5085479;28;20039;-72
2023/10/25 04:32:12;;;;;;;;;;;9.50;99.90;;;;;;5085125;28;19929;-72
2023/10/25 04:34:40;;;;;;;;;;;9.40;99.90;;;;;;5085053;28;20007;-72
2023/10/25 04:37:06;;;;;;;;;;;9.50;99.90;;;;;;5083072;28;19984;-73
2023/10/25 04:39:33;;;;;;;;;;;9.40;99.90;;;;;;5093020;28;19987;-72
2023/10/25 04:41:59;;;;;;;;;;;9.50;99.90;;;;;;5087585;28;19920;-71
2023/10/25 04:44:27;;;;;;;;;;;9.50;99.90;;;;;;5084981;28;19952;-72
2023/10/25 04:46:54;;;;;;;;;;;9.50;99.90;;;;;;5083380;28;19927;-76
2023/10/25 04:49:21;;;;;;;;;;;9.60;99.90;;;;;;5070164;28;19921;-71
2023/10/25 04:51:49;;;;;;;;;;;9.50;99.90;;;;;;5074774;28;20249;-72
2023/10/25 04:54:15;;;;;;;;;;;9.50;99.90;;;;;;5071927;28;19967;-71
2023/10/25 04:56:42;;;;;;;;;;;9.50;99.90;;;;;;5071309;28;19920;-72
2023/10/25 04:59:09;;;;;;;;;;;9.50;99.90;;;;;;5073925;28;19920;-73
2023/10/25 05:01:35;;;;;;;;;;;9.50;99.90;;;;;;5072403;28;19975;-72
2023/10/25 05:04:02;;;;;;;;;;;9.50;99.90;;;;;;5077599;28;19948;-72
2023/10/25 05:06:29;;;;;;;;;;;9.50;99.90;;;;;;5072302;28;19987;-73
2023/10/25 05:08:57;;;;;;;;;;;9.50;99.90;;;;;;5072149;28;19956;-72
2023/10/25 05:11:26;;;;;;;;;;;9.40;99.90;;;;;;5073821;28;19929;-73
2023/10/25 05:13:53;;;;;;;;;;;9.40;99.90;;;;;;5071142;28;19989;-72
2023/10/25 05:16:20;;;;;;;;;;;9.30;99.90;;;;;;5083520;28;19959;-72
2023/10/25 05:18:47;;;;;;;;;;;9.30;99.90;;;;;;5084697;28;20269;-80
2023/10/25 05:21:17;;;;;;;;;;;9.30;99.90;;;;;;5084094;28;19921;-70
2023/10/25 05:23:43;;;;;;;;;;;9.30;99.90;;;;;;5079768;28;19958;-72
2023/10/25 05:26:12;;;;;;;;;;;9.30;99.90;;;;;;5083904;28;19952;-71
2023/10/25 05:28:38;;;;;;;;;;;9.30;99.90;;;;;;5084116;28;19947;-72
2023/10/25 05:31:05;;;;;;;;;;;9.30;99.90;;;;;;5083569;28;20276;-71
2023/10/25 05:33:32;;;;;;;;;;;9.30;99.90;;;;;;5083605;28;19952;-71
2023/10/25 05:36:01;;;;;;;;;;;9.30;99.90;;;;;;5083307;28;20210;-71
2023/10/25 05:38:29;;;;;;;;;;;9.20;99.90;;;;;;5083344;28;19948;-71
2023/10/25 05:40:56;;;;;;;;;;;9.20;99.90;;;;;;5083859;28;19943;-71
2023/10/25 05:43:28;;;;;;;;;;;9.20;99.90;;;;;;5083816;28;19929;-71
2023/10/25 05:45:56;;;;;;;;;;;9.20;99.90;;;;;;5082823;28;19927;-71
2023/10/25 05:48:23;;;;;;;;;;;9.20;99.90;;;;;;5083106;28;19920;-71
2023/10/25 05:50:50;;;;;;;;;;;9.10;99.90;;;;;;5083842;28;19987;-72
2023/10/25 05:53:18;;;;;;;;;;;9.10;99.90;;;;;;5083653;28;20151;-73
2023/10/25 05:55:45;;;;;;;;;;;9.10;99.90;;;;;;5083588;28;20122;-71
2023/10/25 05:58:12;;;;;;;;;;;9.10;99.90;;;;;;5083859;28;19956;-72
2023/10/25 06:00:46;;;;;;;;;;;9.10;99.90;;;;;;5083702;28;20181;-72
2023/10/25 06:03:15;;;;;;;;;;;9.10;99.90;;;;;;5081374;28;19958;-72
2023/10/25 06:05:43;;;;;;;;;;;9.10;99.90;;;;;;5079105;28;19979;-72
2023/10/25 06:08:10;;;;;;;;;;;9.10;99.90;;;;;;5083694;28;19960;-72
2023/10/25 06:10:37;;;;;;;;;;;9.10;99.90;;;;;;5083227;28;19987;-72
2023/10/25 06:13:04;;;;;;;;;;;9.10;99.90;;;;;;5082810;28;19926;-72
2023/10/25 06:15:31;;;;;;;;;;;9.10;99.90;;;;;;5082622;28;19959;-72
2023/10/25 06:17:59;;;;;;;;;;;9.10;99.90;;;;;;5082991;28;19963;-71
2023/10/25 06:20:26;;;;;;;;;;;9.20;99.90;;;;;;5084085;28;19928;-71
2023/10/25 06:22:54;;;;;;;;;;;9.10;99.90;;;;;;5085123;28;19928;-70
2023/10/25 06:25:21;;;;;;;;;;;9.20;99.90;;;;;;5081586;28;19921;-71
2023/10/25 06:27:48;;;;;;;;;;;9.20;99.90;;;;;;5086322;28;19987;-71
2023/10/25 06:30:14;;;;;;;;;;;9.20;99.90;;;;;;5080517;28;19920;-71
2023/10/25 06:32:41;;;;;;;;;;;9.20;99.90;;;;;;5083148;28;19963;-71
2023/10/25 06:35:09;;;;;;;;;;;9.20;99.90;;;;;;5082407;28;20309;-72
2023/10/25 06:37:36;;;;;;;;;;;9.20;99.90;;;;;;5082910;28;19952;-71
2023/10/25 06:40:03;;;;;;;;;;;9.20;99.90;;;;;;5083014;28;19920;-71
2023/10/25 06:42:30;;;;;;;;;;;9.20;99.90;;;;;;5082673;28;19963;-71
2023/10/25 06:44:57;;;;;;;;;;;9.20;99.90;;;;;;5082559;28;19980;-71
2023/10/25 06:47:25;;;;;;;;;;;9.30;99.90;;;;;;5081188;28;19935;-71
2023/10/25 06:49:52;;;;;;;;;;;9.30;99.90;;;;;;5082144;28;19920;-72
2023/10/25 06:52:21;;;;;;;;;;;9.30;99.90;;;;;;5082952;28;19955;-71
2023/10/25 06:54:49;;;;;;;;;;;9.30;99.90;;;;;;5082809;28;19920;-72
2023/10/25 06:57:16;;;;;;;;;;;9.30;99.90;;;;;;5082145;28;20203;-71
2023/10/25 06:59:43;;;;;;;;;;;9.30;99.90;;;;;;5082882;28;19959;-71
2023/10/25 07:02:18;;;;;;;;;;;9.30;99.90;;;;;;5080315;28;19980;-72
2023/10/25 07:04:47;;;;;;;;;;;9.30;99.90;;;;;;5086882;28;19954;-71
2023/10/25 07:07:14;;;;;;;;;;;9.30;99.90;;;;;;5083096;28;19952;-71
2023/10/25 07:09:42;;;;;;;;;;;9.30;99.90;;;;;;5082377;28;20286;-71
2023/10/25 07:12:09;;;;;;;;;;;9.30;99.90;;;;;;5079750;28;19921;-71
2023/10/25 07:14:35;;;;;;;;;;;9.30;99.90;;;;;;5082262;28;19934;-71
2023/10/25 07:17:02;;;;;;;;;;;9.30;99.90;;;;;;5081802;28;20173;-70
2023/10/25 07:19:29;;;;;;;;;;;9.30;99.90;;;;;;5082218;28;20170;-72
2023/10/25 07:21:55;;;;;;;;;;;9.40;99.90;;;;;;5082287;28;19920;-71
2023/10/25 07:24:22;;;;;;;;;;;9.40;99.90;;;;;;5085447;28;19920;-71
2023/10/25 07:26:50;;;;;;;;;;;9.40;99.90;;;;;;5095142;28;20232;-71
2023/10/25 07:29:16;;;;;;;;;;;9.50;99.90;;;;;;5085912;28;19935;-71
2023/10/25 07:31:43;;;;;;;;;;;9.40;99.90;;;;;;5086515;28;19920;-71
2023/10/25 07:34:10;;;;;;;;;;;9.40;99.90;;;;;;5085870;28;19987;-72
2023/10/25 07:36:36;;;;;;;;;;;9.40;99.90;;;;;;5085216;28;19921;-72
2023/10/25 07:39:03;;;;;;;;;;;9.50;99.90;;;;;;5086364;28;20009;-71
2023/10/25 07:41:29;;;;;;;;;;;9.50;99.90;;;;;;5085788;28;19951;-72
2023/10/25 07:43:58;;;;;;;;;;;9.50;99.90;;;;;;5086222;28;19988;-72
2023/10/25 07:46:24;;;;;;;;;;;9.50;99.90;;;;;;5085644;28;19983;-72
2023/10/25 07:48:51;;;;;;;;;;;9.50;99.90;;;;;;5086205;28;19964;-72
2023/10/25 07:51:18;;;;;;;;;;;9.50;99.90;;;;;;5086242;28;20153;-72
2023/10/25 07:53:44;;;;;;;;;;;9.50;99.90;;;;;;5085916;28;19988;-72
2023/10/25 07:56:11;;;;;;;;;;;9.50;99.90;;;;;;5085651;28;19920;-71
2023/10/25 07:58:37;;;;;;;;;;;9.50;99.90;;;;;;5085652;28;20056;-70
2023/10/25 08:01:05;;;;;;;;;;;9.50;99.90;;;;;;5085861;28;19978;-71
2023/10/25 08:03:32;;;;;;;;;;;9.50;99.90;;;;;;5085377;28;19984;-71
2023/10/25 08:05:59;;;;;;;;;;;9.50;99.90;;;;;;5084900;28;20286;-74
2023/10/25 08:08:25;;;;;;;;;;;9.50;99.90;;;;;;5085216;28;19920;-72
2023/10/25 08:10:59;;;;;;;;;;;9.50;99.90;;;;;;5085443;28;19921;-72
2023/10/25 08:13:26;;;;;;;;;;;9.60;99.90;;;;;;5086105;28;19952;-71
2023/10/25 08:15:56;;;;;;;;;;;9.70;99.90;;;;;;5084753;28;19952;-71
2023/10/25 08:18:24;;;;;;;;;;;9.70;99.90;;;;;;5086074;28;19988;-69
2023/10/25 08:20:51;;;;;;;;;;;9.70;99.90;;;;;;5088906;28;19956;-70
2023/10/25 08:23:17;;;;;;;;;;;9.80;99.90;;;;;;5082531;28;19929;-70
2023/10/25 08:25:44;;;;;;;;;;;9.80;99.90;;;;;;5084756;28;19920;-70
2023/10/25 08:28:10;;;;;;;;;;;9.80;99.90;;;;;;5084593;28;19920;-70
2023/10/25 08:30:37;;;;;;;;;;;9.80;99.90;;;;;;5089770;28;20262;-69
2023/10/25 08:33:04;;;;;;;;;;;9.80;99.90;;;;;;5085304;28;19920;-70
2023/10/25 08:35:32;;;;;;;;;;;9.90;99.90;;;;;;5083680;28;19979;-70
2023/10/25 08:37:58;;;;;;;;;;;9.90;99.90;;;;;;5085060;28;20132;-70
2023/10/25 08:40:25;;;;;;;;;;;10.00;99.90;;;;;;5084787;28;19979;-69
2023/10/25 08:42:52;;;;;;;;;;;10.00;99.90;;;;;;5085260;28;19920;-70
2023/10/25 08:45:19;;;;;;;;;;;10.00;99.90;;;;;;5088842;28;19925;-70
2023/10/25 08:47:46;;;;;;;;;;;10.10;99.90;;;;;;5084482;28;19921;-70
2023/10/25 08:50:19;;;;;;;;;;;10.10;99.90;;;;;;5083841;28;20238;-70
2023/10/25 08:52:49;;;;;;;;;;;10.20;99.90;;;;;;5079931;28;20210;-70
2023/10/25 08:55:18;;;;;;;;;;;10.20;99.90;;;;;;5083080;28;19969;-70
2023/10/25 08:57:45;;;;;;;;;;;10.20;99.90;;;;;;5083469;28;20229;-70
2023/10/25 09:00:12;;;;;;;;;;;10.20;99.90;;;;;;5084029;28;19960;-71
2023/10/25 09:02:39;;;;;;;;;;;10.30;99.90;;;;;;5089229;28;20186;-70
2023/10/25 09:05:06;;;;;;;;;;;10.40;99.90;;;;;;5083353;28;19976;-70
2023/10/25 09:07:34;;;;;;;;;;;10.50;99.90;;;;;;5084135;28;20110;-70
2023/10/25 09:10:04;;;;;;;;;;;10.60;99.90;;;;;;5088923;28;19926;-70
2023/10/25 09:12:30;;;;;;;;;;;10.70;99.90;;;;;;5084053;28;19924;-70
2023/10/25 09:14:57;;;;;;;;;;;10.80;99.90;;;;;;5083615;28;19983;-70
2023/10/25 09:17:24;;;;;;;;;;;10.80;99.90;;;;;;5083142;28;19983;-70
2023/10/25 09:19:51;;;;;;;;;;;10.90;99.90;;;;;;5084156;28;19920;-71
2023/10/25 09:22:22;;;;;;;;;;;10.80;99.90;;;;;;5081230;28;19952;-70
2023/10/25 09:24:49;;;;;;;;;;;10.90;99.90;;;;;;5083585;28;19920;-70
2023/10/25 09:27:17;;;;;;;;;;;10.80;99.90;;;;;;5082663;28;19960;-70
2023/10/25 09:29:44;;;;;;;;;;;10.90;99.90;;;;;;5088641;28;20166;-69
2023/10/25 09:32:11;;;;;;;;;;;10.90;99.90;;;;;;5083095;28;19934;-70
2023/10/25 09:34:37;;;;;;;;;;;11.00;99.90;;;;;;5082735;28;19991;-70
2023/10/25 09:37:04;;;;;;;;;;;11.00;99.90;;;;;;5082890;28;20282;-70
2023/10/25 09:39:32;;;;;;;;;;;11.10;99.90;;;;;;5083205;28;19960;-70
2023/10/25 09:42:02;;;;;;;;;;;11.10;99.90;;;;;;5083673;28;19927;-70
2023/10/25 09:44:32;;;;;;;;;;;11.20;99.90;;;;;;5083256;28;19987;-70
2023/10/25 09:46:59;;;;;;;;;;;11.20;99.90;;;;;;5082042;28;19920;-70
2023/10/25 09:49:29;;;;;;;;;;;11.30;99.90;;;;;;5083083;28;19935;-70
2023/10/25 09:52:05;;;;;;;;;;;11.40;99.90;;;;;;5083186;28;19927;-70
2023/10/25 09:54:33;;;;;;;;;;;11.50;99.90;;;;;;5082901;28;20268;-70
2023/10/25 09:57:02;;;;;;;;;;;11.70;99.90;;;;;;5082630;28;19928;-70
2023/10/25 09:59:30;;;;;;;;;;;11.80;99.90;;;;;;5082957;28;19935;-70
2023/10/25 10:01:57;;;;;;;;;;;11.80;99.90;;;;;;5080191;28;19970;-70
2023/10/25 10:04:28;;;;;;;;;;;11.90;99.90;;;;;;5082540;28;19978;-70
2023/10/25 10:06:59;;;;;;;;;;;12.00;99.90;;;;;;5082562;28;19920;-70
2023/10/25 10:09:30;;;;;;;;;;;12.10;99.90;;;;;;5082908;28;19980;-70
2023/10/25 10:11:59;;;;;;;;;;;12.20;99.90;;;;;;5087197;28;19920;-70
2023/10/25 10:14:27;;;;;;;;;;;12.20;99.90;;;;;;5082896;28;19992;-70
2023/10/25 10:16:58;;;;;;;;;;;12.30;99.90;;;;;;5081906;28;19921;-70
2023/10/25 10:19:25;;;;;;;;;;;12.50;99.90;;;;;;5082563;28;19935;-70
2023/10/25 10:22:02;;;;;;;;;;;12.70;99.90;;;;;;5082726;28;20114;-70
2023/10/25 10:24:39;;;;;;;;;;;12.80;99.90;;;;;;5074528;28;19947;-70
2023/10/25 10:27:05;;;;;;;;;;;13.00;99.90;;;;;;5077354;28;19987;-70
2023/10/25 10:29:39;;;;;;;;;;;13.00;99.90;;;;;;5078075;28;20183;-70
2023/10/25 10:32:07;;;;;;;;;;;13.00;99.90;;;;;;5074749;28;20210;-70
2023/10/25 10:34:38;;;;;;;;;;;13.10;99.90;;;;;;5076103;28;19921;-70
2023/10/25 10:37:08;;;;;;;;;;;13.20;99.90;;;;;;5073691;28;19992;-70
2023/10/25 10:39:36;;;;;;;;;;;13.20;99.90;;;;;;5081296;28;20288;-70
2023/10/25 10:42:03;;;;;;;;;;;13.30;99.90;;;;;;5078048;28;20269;-70
2023/10/25 10:44:30;;;;;;;;;;;13.20;99.90;;;;;;5075697;28;19920;-71
2023/10/25 10:46:59;;;;;;;;;;;13.20;99.90;;;;;;5070772;28;19991;-70
2023/10/25 10:49:29;;;;;;;;;;;13.10;99.90;;;;;;5080943;28;19929;-71
2023/10/25 10:51:56;;;;;;;;;;;13.10;99.90;;;;;;5075517;28;19924;-70
2023/10/25 10:54:23;;;;;;;;;;;13.10;99.90;;;;;;5075551;28;20229;-70
2023/10/25 10:56:50;;;;;;;;;;;13.10;99.90;;;;;;5081319;28;20305;-70
2023/10/25 10:59:17;;;;;;;;;;;13.00;99.90;;;;;;5082596;28;19921;-70
2023/10/25 11:01:44;;;;;;;;;;;12.90;99.90;;;;;;5088175;28;19921;-70
2023/10/25 11:04:10;;;;;;;;;;;12.90;99.90;;;;;;5082611;28;19921;-70
2023/10/25 11:06:40;;;;;;;;;;;12.80;99.90;;;;;;5082488;28;19956;-70
2023/10/25 11:09:08;;;;;;;;;;;12.80;99.90;;;;;;5078721;28;19928;-72
2023/10/25 11:11:35;;;;;;;;;;;12.80;99.90;;;;;;5083957;28;19924;-70
2023/10/25 11:14:02;;;;;;;;;;;12.70;99.90;;;;;;5082985;28;19960;-70
2023/10/25 11:16:29;;;;;;;;;;;12.70;99.90;;;;;;5083783;28;19991;-71
2023/10/25 11:19:05;;;;;;;;;;;12.70;99.90;;;;;;5090465;28;19955;-70
2023/10/25 11:21:33;;;;;;;;;;;12.60;99.90;;;;;;5079807;28;19939;-71
2023/10/25 11:24:06;;;;;;;;;;;12.60;99.90;;;;;;5074846;28;19928;-71
2023/10/25 11:26:40;;;;;;;;;;;12.50;99.90;;;;;;5070871;28;19929;-70
2023/10/25 11:29:07;;;;;;;;;;;12.50;99.90;;;;;;5079335;28;19921;-70
2023/10/25 11:31:34;;;;;;;;;;;12.40;99.90;;;;;;5086955;28;19932;-70
2023/10/25 11:34:01;;;;;;;;;;;12.40;99.90;;;;;;5087793;28;19992;-71
2023/10/25 11:36:28;;;;;;;;;;;12.30;99.90;;;;;;5083954;28;20229;-71
2023/10/25 11:39:02;;;;;;;;;;;12.40;99.90;;;;;;5078325;28;19956;-71
2023/10/25 11:41:28;;;;;;;;;;;12.30;99.90;;;;;;5087453;28;20281;-71
2023/10/25 11:43:56;;;;;;;;;;;12.30;99.90;;;;;;5087516;28;19920;-71
2023/10/25 11:46:24;;;;;;;;;;;12.30;99.90;;;;;;5087397;28;19958;-71
2023/10/25 11:48:50;;;;;;;;;;;12.30;99.90;;;;;;5087671;28;19921;-71
2023/10/25 11:51:18;;;;;;;;;;;12.30;99.90;;;;;;5081578;28;19964;-71
2023/10/25 11:53:45;;;;;;;;;;;12.30;99.90;;;;;;5082903;28;20222;-71
2023/10/25 11:56:13;;;;;;;;;;;12.30;99.90;;;;;;5080864;28;20316;-71
2023/10/25 11:58:39;;;;;;;;;;;12.30;99.90;;;;;;5087110;28;20238;-72
2023/10/25 12:01:06;;;;;;;;;;;12.30;99.90;;;;;;5082386;28;19956;-71
2023/10/25 12:03:33;;;;;;;;;;;12.30;99.90;;;;;;5080238;28;19991;-71
2023/10/25 12:05:59;;;;;;;;;;;12.30;99.90;;;;;;5081284;28;20270;-72
2023/10/25 12:08:26;;;;;;;;;;;12.30;99.90;;;;;;5087517;28;19920;-72
2023/10/25 12:10:53;;;;;;;;;;;12.30;99.90;;;;;;5074007;28;19921;-71
2023/10/25 12:13:21;;;;;;;;;;;12.30;99.90;;;;;;5085419;28;20211;-71
2023/10/25 12:15:48;;;;;;;;;;;12.30;99.90;;;;;;5084521;28;19962;-72
2023/10/25 12:18:16;;;;;;;;;;;12.30;99.90;;;;;;5085166;28;20015;-72
2023/10/25 12:20:42;;;;;;;;;;;12.30;99.90;;;;;;5083667;28;19921;-71
2023/10/25 12:23:09;;;;;;;;;;;12.30;99.90;;;;;;5083748;28;19927;-71
2023/10/25 12:25:37;;;;;;;;;;;12.30;99.90;;;;;;5084593;28;19984;-71
2023/10/25 12:28:04;;;;;;;;;;;12.30;99.90;;;;;;5084578;28;20272;-71
2023/10/25 12:30:32;;;;;;;;;;;12.30;99.90;;;;;;5084542;28;20232;-71
2023/10/25 12:32:59;;;;;;;;;;;12.30;99.90;;;;;;5084596;28;19928;-71
2023/10/25 12:35:26;;;;;;;;;;;12.30;99.90;;;;;;5085410;28;19920;-71
2023/10/25 12:37:52;;;;;;;;;;;12.20;99.90;;;;;;5088175;28;19959;-71
2023/10/25 12:40:19;;;;;;;;;;;12.20;99.90;;;;;;5084497;28;20232;-71
2023/10/25 12:42:46;;;;;;;;;;;12.20;99.90;;;;;;5080367;28;20200;-71
2023/10/25 12:45:12;;;;;;;;;;;12.20;99.90;;;;;;5084334;28;19991;-71
2023/10/25 12:47:40;;;;;;;;;;;12.20;99.90;;;;;;5084876;28;19920;-71
2023/10/25 12:50:08;;;;;;;;;;;12.30;99.90;;;;;;5084732;28;19987;-71
2023/10/25 12:52:34;;;;;;;;;;;12.30;99.90;;;;;;5084522;28;19929;-71
2023/10/25 12:55:01;;;;;;;;;;;12.30;99.90;;;;;;5084200;28;20125;-71
2023/10/25 12:57:28;;;;;;;;;;;12.40;99.90;;;;;;5085636;28;19927;-71
2023/10/25 12:59:54;;;;;;;;;;;12.50;99.90;;;;;;5087101;28;20260;-72
2023/10/25 13:02:21;;;;;;;;;;;12.50;99.90;;;;;;5071250;28;19924;-71
2023/10/25 13:04:49;;;;;;;;;;;12.50;99.90;;;;;;5071359;28;19921;-70
2023/10/25 13:07:16;;;;;;;;;;;12.50;99.90;;;;;;5082914;28;19960;-73
2023/10/25 13:09:42;;;;;;;;;;;12.50;99.90;;;;;;5075693;28;19920;-71
2023/10/25 13:12:09;;;;;;;;;;;12.60;99.90;;;;;;5077948;28;19924;-70
2023/10/25 13:14:36;;;;;;;;;;;12.60;99.90;;;;;;5075334;28;19929;-71
2023/10/25 13:17:02;;;;;;;;;;;12.60;99.90;;;;;;5076263;28;19995;-73
2023/10/25 13:19:29;;;;;;;;;;;12.70;99.90;;;;;;5082537;28;19921;-71
2023/10/25 13:21:57;;;;;;;;;;;12.60;99.90;;;;;;5083164;28;19958;-71
2023/10/25 13:24:24;;;;;;;;;;;12.70;99.90;;;;;;5075772;28;19955;-71
2023/10/25 13:26:50;;;;;;;;;;;12.70;99.90;;;;;;5069200;28;19960;-71
2023/10/25 13:29:17;;;;;;;;;;;12.60;99.90;;;;;;5078106;28;19920;-71
2023/10/25 13:31:44;;;;;;;;;;;12.70;99.90;;;;;;5083662;28;20133;-71
2023/10/25 13:34:10;;;;;;;;;;;12.70;99.90;;;;;;5083468;28;20261;-71
2023/10/25 13:36:37;;;;;;;;;;;12.70;99.90;;;;;;5083190;28;19927;-71
2023/10/25 13:39:06;;;;;;;;;;;12.70;99.90;;;;;;5086902;28;19983;-71
2023/10/25 13:41:33;;;;;;;;;;;12.60;99.90;;;;;;5083779;28;19920;-71
2023/10/25 13:43:59;;;;;;;;;;;12.60;99.90;;;;;;5084557;28;19983;-72
2023/10/25 13:46:26;;;;;;;;;;;12.70;99.90;;;;;;5088072;28;19920;-71
2023/10/25 13:48:52;;;;;;;;;;;12.60;99.90;;;;;;5083223;28;20194;-72
2023/10/25 13:51:19;;;;;;;;;;;12.70;99.90;;;;;;5083419;28;19928;-72
2023/10/25 13:53:46;;;;;;;;;;;12.60;99.90;;;;;;5083104;28;20039;-73
2023/10/25 13:56:15;;;;;;;;;;;12.60;99.90;;;;;;5082799;28;19991;-71
2023/10/25 13:58:42;;;;;;;;;;;12.60;99.90;;;;;;5082411;28;19929;-71
2023/10/25 14:01:09;;;;;;;;;;;12.60;99.90;;;;;;5083513;28;19955;-71
2023/10/25 14:03:35;;;;;;;;;;;12.60;99.90;;;;;;5082714;28;19970;-71
2023/10/25 14:06:04;;;;;;;;;;;12.60;99.90;;;;;;5083921;28;19947;-71
2023/10/25 14:08:31;;;;;;;;;;;12.60;99.90;;;;;;5084034;28;19924;-71
2023/10/25 14:10:58;;;;;;;;;;;12.60;99.90;;;;;;5082595;28;19991;-71
2023/10/25 14:13:26;;;;;;;;;;;12.60;99.90;;;;;;5082128;28;19970;-72
2023/10/25 14:15:52;;;;;;;;;;;12.60;99.90;;;;;;5085487;28;19952;-72
2023/10/25 14:18:19;;;;;;;;;;;12.60;99.90;;;;;;5082294;28;19963;-71
2023/10/25 14:20:45;;;;;;;;;;;12.70;99.90;;;;;;5082787;28;20003;-72